Time;durP1;ratioP1;P1;durP2;ratioP2;P2;SDS_P1;SDS_P2;PMS_P1;PMS_P2;Temp;Humidity;BMP_temperature;BMP_pressure;BME280_temperature;BME280_humidity;BME280_pressure;Samples;Min_cycle;Max_cycle;Signal;HPM_P1;HPM_P2
2021/12/08 00:00:57;;;;;;;4.37;3.03;;;;;;;3.15;92.27;99523.08;126348;1099;104277;-79
2021/12/08 00:03:28;;;;;;;4.37;3.00;;;;;;;3.14;92.15;99512.63;126271;1098;104178;-79
2021/12/08 00:05:58;;;;;;;3.70;2.90;;;;;;;3.13;92.25;99511.75;126302;1099;104305;-80
2021/12/08 00:08:29;;;;;;;4.43;2.77;;;;;;;3.12;92.33;99517.73;126338;1099;104315;-80
2021/12/08 00:13:46;;;;;;;3.53;2.80;;;;;;;3.07;91.62;99521.81;126217;1099;104178;-78
2021/12/08 00:16:15;;;;;;;4.53;2.80;;;;;;;3.09;92.07;99521.89;126120;1099;104172;-79
2021/12/08 00:18:47;;;;;;;3.17;2.50;;;;;;;3.05;92.50;99529.52;126144;1099;104176;-79
2021/12/08 00:21:17;;;;;;;3.83;2.40;;;;;;;3.02;92.07;99518.08;126089;1099;104200;-79
2021/12/08 00:23:46;;;;;;;2.80;2.33;;;;;;;3.00;92.36;99518.01;125985;1099;104179;-79
2021/12/08 00:26:15;;;;;;;2.25;2.05;;;;;;;2.98;92.00;99513.58;125948;1099;104175;-79
2021/12/08 00:28:44;;;;;;;2.43;2.07;;;;;;;2.99;91.81;99520.52;125957;1099;104271;-79
2021/12/08 00:31:27;;;;;;;2.57;2.37;;;;;;;2.97;91.88;99515.27;126149;1099;104268;-79
2021/12/08 00:33:56;;;;;;;2.67;2.20;;;;;;;2.97;91.98;99512.67;126066;1098;104332;-79
2021/12/08 00:36:31;;;;;;;2.47;2.27;;;;;;;2.97;92.10;99504.89;126096;1099;104309;-79
2021/12/08 00:38:59;;;;;;;2.50;2.30;;;;;;;2.95;92.25;99503.94;126264;1099;104158;-79
2021/12/08 00:41:28;;;;;;;2.37;2.10;;;;;;;2.95;91.29;99503.06;126293;1099;104219;-78
2021/12/08 00:43:59;;;;;;;2.50;2.27;;;;;;;2.94;91.04;99509.05;126295;1099;104149;-79
2021/12/08 00:46:27;;;;;;;3.60;2.47;;;;;;;2.91;91.69;99503.71;126341;1099;104293;-79
2021/12/08 00:48:56;;;;;;;2.80;2.50;;;;;;;2.92;92.66;99506.37;126250;1099;104405;-79
2021/12/08 00:51:25;;;;;;;5.20;2.65;;;;;;;2.89;91.95;99503.63;126345;1098;104178;-79
2021/12/08 00:53:54;;;;;;;3.97;2.40;;;;;;;2.88;91.87;99510.53;126276;1099;104159;-79
2021/12/08 00:56:22;;;;;;;3.80;2.60;;;;;;;2.87;92.34;99513.92;126319;1099;104143;-79
2021/12/08 00:58:51;;;;;;;2.85;2.55;;;;;;;2.86;92.33;99503.48;126324;1099;104618;-79
2021/12/08 01:01:20;;;;;;;2.80;2.47;;;;;;;2.86;92.63;99493.98;126206;1099;104173;-79
2021/12/08 01:03:50;;;;;;;2.23;2.00;;;;;;;2.86;91.77;99495.70;126251;1099;104153;-79
2021/12/08 01:06:19;;;;;;;3.70;2.10;;;;;;;2.84;92.45;99492.16;126333;1099;104150;-79
2021/12/08 01:08:48;;;;;;;2.20;2.00;;;;;;;2.86;92.35;99495.70;126308;1098;104332;-79
2021/12/08 01:11:20;;;;;;;2.93;2.03;;;;;;;2.85;91.90;99505.19;126280;1099;104146;-79
2021/12/08 01:13:50;;;;;;;2.50;2.13;;;;;;;2.85;91.85;99505.19;126185;1098;105651;-78
2021/12/08 01:16:20;;;;;;;1.90;1.80;;;;;;;2.85;92.00;99504.28;126323;1099;104278;-78
2021/12/08 01:18:48;;;;;;;2.20;2.00;;;;;;;2.84;92.20;99492.16;126327;1099;104226;-79
2021/12/08 01:21:23;;;;;;;2.40;2.17;;;;;;;2.84;92.01;99494.75;126338;1099;103542;-79
2021/12/08 01:23:55;;;;;;;2.37;2.10;;;;;;;2.85;92.16;99499.09;126235;1099;104296;-79
2021/12/08 01:26:25;;;;;;;2.37;2.17;;;;;;;2.84;92.51;99495.63;126247;1099;104191;-79
2021/12/08 01:28:56;;;;;;;2.13;1.93;;;;;;;2.84;92.72;99495.63;126302;1099;104143;-78
2021/12/08 01:31:25;;;;;;;3.53;1.97;;;;;;;2.83;92.36;99491.25;126336;1098;104146;-79
2021/12/08 01:33:54;;;;;;;4.97;2.70;;;;;;;2.84;92.52;99482.67;126295;1099;104162;-79
2021/12/08 01:36:22;;;;;;;3.40;2.23;;;;;;;2.84;92.08;99482.67;126344;1099;104172;-79
2021/12/08 01:38:51;;;;;;;4.23;2.20;;;;;;;2.84;92.37;99484.38;126298;1099;104155;-79
2021/12/08 01:41:21;;;;;;;3.43;2.47;;;;;;;2.81;92.63;99471.28;126306;1099;104284;-79
2021/12/08 01:46:33;;;;;;;3.30;2.50;;;;;;;2.77;92.56;99461.56;126296;1099;104232;-79
2021/12/08 01:49:03;;;;;;;4.67;2.83;;;;;;;2.75;92.99;99465.78;126329;1099;104150;-79
2021/12/08 01:51:32;;;;;;;2.77;2.50;;;;;;;2.75;92.80;99465.78;126274;1099;104291;-79
2021/12/08 01:54:04;;;;;;;2.40;2.20;;;;;;;2.72;93.05;99463.92;126306;1099;104226;-80
2021/12/08 01:56:35;;;;;;;3.30;2.57;;;;;;;2.69;93.03;99450.81;126100;1099;111465;-79
2021/12/08 01:59:09;;;;;;;5.03;2.80;;;;;;;2.67;93.36;99440.38;126130;1099;104149;-79
2021/12/08 02:01:39;;;;;;;3.77;2.67;;;;;;;2.65;92.72;99454.05;126022;1099;104281;-79
2021/12/08 02:04:08;;;;;;;4.60;2.67;;;;;;;2.64;92.83;99444.52;125987;1099;104155;-79
2021/12/08 02:06:39;;;;;;;4.27;2.70;;;;;;;2.63;92.97;99434.96;126016;1099;104226;-80
2021/12/08 02:09:12;;;;;;;4.37;3.00;;;;;;;2.62;92.68;99447.03;126016;1098;104188;-79
2021/12/08 02:11:45;;;;;;;4.13;2.87;;;;;;;2.64;92.05;99450.58;126154;1099;104149;-79
2021/12/08 02:14:13;;;;;;;3.57;2.77;;;;;;;2.61;92.65;99444.37;126132;1099;104178;-79
2021/12/08 02:16:42;;;;;;;3.40;2.70;;;;;;;2.62;92.41;99454.80;126279;1099;104085;-78
2021/12/08 02:19:11;;;;;;;4.13;2.90;;;;;;;2.60;92.86;99453.84;126362;1099;104159;-79
2021/12/08 02:21:42;;;;;;;2.65;2.40;;;;;;;2.60;92.65;99459.03;126287;1099;104159;-79
2021/12/08 02:24:12;;;;;;;4.50;2.80;;;;;;;2.60;92.52;99452.94;126332;1099;104159;-79
2021/12/08 02:26:43;;;;;;;3.40;2.67;;;;;;;2.59;92.32;99451.18;126178;1099;104268;-79
2021/12/08 02:29:19;;;;;;;3.60;2.80;;;;;;;2.59;92.32;99446.00;126300;1099;104152;-80
2021/12/08 02:31:54;;;;;;;4.43;3.30;;;;;;;2.58;93.12;99451.98;126339;1099;104159;-79
2021/12/08 02:48:18;;;;;;;5.97;3.80;;;;;;;2.50;92.30;99468.01;126269;1099;105060;-79
2021/12/08 02:50:50;;;;;;;4.53;3.17;;;;;;;2.50;92.29;99469.72;126321;1099;104274;-79
2021/12/08 02:53:21;;;;;;;6.13;4.17;;;;;;;2.47;92.52;99470.44;126306;1098;104335;-79
2021/12/08 02:55:50;;;;;;;6.03;3.87;;;;;;;2.48;92.91;99469.64;126312;1099;104718;-79
2021/12/08 02:58:19;;;;;;;6.70;3.67;;;;;;;2.49;92.53;99468.84;126205;1099;104184;-79
2021/12/08 03:00:51;;;;;;;5.67;3.57;;;;;;;2.47;92.99;99480.80;126302;1099;104201;-79
2021/12/08 03:03:20;;;;;;;5.30;3.55;;;;;;;2.47;92.77;99474.73;126304;1099;104309;-79
2021/12/08 03:05:48;;;;;;;4.30;3.07;;;;;;;2.47;92.51;99477.33;126245;1099;104223;-79
2021/12/08 03:08:17;;;;;;;5.60;3.57;;;;;;;2.45;92.75;99472.07;126345;1099;104255;-79
2021/12/08 03:10:51;;;;;;;4.70;3.57;;;;;;;2.44;92.48;99470.28;126363;1099;104153;-79
2021/12/08 03:13:30;;;;;;;6.03;3.83;;;;;;;2.44;92.49;99467.69;126351;1099;105639;-80
2021/12/08 03:16:00;;;;;;;9.47;5.17;;;;;;;2.44;93.03;99474.58;126306;1099;104198;-80
2021/12/08 03:18:33;;;;;;;9.73;5.20;;;;;;;2.47;92.37;99475.62;126292;1098;104194;-79
2021/12/08 03:21:09;;;;;;;6.10;3.83;;;;;;;2.50;92.37;99468.01;126216;1099;104274;-79
2021/12/08 03:23:49;;;;;;;6.47;3.70;;;;;;;2.49;92.36;99466.25;126347;1099;104220;-79
2021/12/08 03:26:24;;;;;;;8.10;4.90;;;;;;;2.48;92.46;99467.05;126235;1099;104158;-79
2021/12/08 03:29:02;;;;;;;5.80;3.90;;;;;;;2.49;91.93;99471.43;126342;1099;104278;-79
2021/12/08 03:31:36;;;;;;;10.30;5.33;;;;;;;2.49;91.75;99474.02;126316;1099;104277;-79
2021/12/08 03:34:05;;;;;;;8.30;5.03;;;;;;;2.50;92.11;99474.89;126284;1098;104210;-79
2021/12/08 03:36:34;;;;;;;10.93;5.57;;;;;;;2.50;92.21;99465.42;126250;1099;104143;-79
2021/12/08 03:39:05;;;;;;;10.50;5.83;;;;;;;2.52;92.05;99468.09;126248;1099;104596;-78
2021/12/08 03:41:35;;;;;;;13.37;6.67;;;;;;;2.51;92.17;99462.03;126348;1099;104160;-78
2021/12/08 03:44:05;;;;;;;9.50;4.70;;;;;;;2.53;92.27;99463.81;126312;1099;104146;-79
2021/12/08 03:46:40;;;;;;;11.23;5.00;;;;;;;2.50;92.10;99462.83;126282;1099;104256;-79
2021/12/08 03:49:11;;;;;;;11.10;5.87;;;;;;;2.48;92.71;99469.64;126337;1098;104197;-79
2021/12/08 03:51:41;;;;;;;4.10;2.90;;;;;;;2.46;92.87;99467.77;126265;1099;104283;-79
2021/12/08 03:54:12;;;;;;;8.07;4.50;;;;;;;2.43;92.35;99468.52;126215;1099;104573;-79
2021/12/08 03:56:40;;;;;;;10.83;5.47;;;;;;;2.46;92.55;99467.77;126283;1099;104223;-79
2021/12/08 03:59:09;;;;;;;9.10;5.10;;;;;;;2.44;92.57;99475.46;126139;1099;104172;-79
2021/12/08 04:01:38;;;;;;;9.67;4.70;;;;;;;2.45;92.14;99479.84;126142;1099;104155;-79
2021/12/08 04:04:09;;;;;;;7.37;4.30;;;;;;;2.46;92.38;99476.45;126073;1099;104146;-79
2021/12/08 04:06:46;;;;;;;9.73;4.80;;;;;;;2.44;92.48;99471.98;126157;1096;104216;-79
2021/12/08 04:09:24;;;;;;;5.27;3.50;;;;;;;2.46;92.59;99479.04;126107;1099;119737;-79
2021/12/08 04:11:54;;;;;;;7.60;4.07;;;;;;;2.43;92.44;99471.11;126277;1099;104161;-79
2021/12/08 04:14:25;;;;;;;6.70;4.27;;;;;;;2.42;92.36;99474.50;126168;1099;104137;-79
2021/12/08 04:16:56;;;;;;;9.10;4.90;;;;;;;2.41;92.78;99474.42;126255;1099;104178;-78
2021/12/08 04:19:26;;;;;;;5.73;3.83;;;;;;;2.38;92.73;99469.96;126129;1099;104175;-79
2021/12/08 04:21:57;;;;;;;7.60;4.30;;;;;;;2.39;92.37;99479.52;126113;1099;104146;-79
2021/12/08 04:24:27;;;;;;;5.70;3.77;;;;;;;2.40;92.04;99476.13;126108;1099;104213;-79
2021/12/08 04:26:59;;;;;;;7.55;4.60;;;;;;;2.41;92.22;99472.71;126006;1099;104245;-79
2021/12/08 04:29:30;;;;;;;13.60;6.70;;;;;;;2.41;91.94;99475.30;125905;1099;104171;-79
2021/12/08 04:32:00;;;;;;;10.73;5.50;;;;;;;2.42;92.49;99486.56;126033;1099;104172;-79
2021/12/08 04:34:33;;;;;;;12.50;6.13;;;;;;;2.44;91.99;99483.23;126002;1098;104155;-79
2021/12/08 04:37:09;;;;;;;10.63;5.77;;;;;;;2.46;91.76;99486.81;126175;1099;104268;-78
2021/12/08 04:39:49;;;;;;;11.63;5.93;;;;;;;2.44;92.24;99496.17;126295;1099;104146;-78
2021/12/08 04:42:27;;;;;;;11.70;5.47;;;;;;;2.40;92.48;99496.84;126350;1099;104278;-78
2021/12/08 04:45:04;;;;;;;9.67;5.23;;;;;;;2.39;92.40;99502.83;126296;1099;104175;-79
2021/12/08 04:47:35;;;;;;;12.13;6.10;;;;;;;2.39;92.53;99502.83;126308;1097;104191;-78
2021/12/08 04:50:29;;;;;;;9.67;4.53;;;;;;;2.38;92.83;99500.16;126244;1099;108256;-79
2021/12/08 04:53:05;;;;;;;5.62;3.50;;;;;;;2.36;92.32;99496.61;126304;1099;104156;-78
2021/12/08 05:01:23;;;;;;;10.37;5.50;;;;;;;2.31;92.68;99514.48;126134;1100;104761;-79
2021/12/08 05:04:14;;;;;;;12.90;6.08;;;;;;;2.28;92.54;99510.03;126072;1099;104400;-79
2021/12/08 05:06:51;;;;;;;9.73;5.43;;;;;;;2.27;92.98;99509.95;126046;1099;104191;-79
2021/12/08 05:09:23;;;;;;;12.67;5.90;;;;;;;2.26;93.00;99503.89;126019;1099;104648;-79
2021/12/08 05:11:56;;;;;;;14.00;6.77;;;;;;;2.27;93.24;99512.53;125956;1099;104217;-79
2021/12/08 05:14:28;;;;;;;7.40;4.30;;;;;;;2.27;92.61;99509.95;126114;1099;104047;-79
2021/12/08 05:17:02;;;;;;;15.80;7.50;;;;;;;2.26;92.51;99523.69;126113;1099;104153;-78
2021/12/08 05:19:33;;;;;;;11.40;5.78;;;;;;;2.26;92.70;99522.01;126139;1099;104165;-79
2021/12/08 05:22:05;;;;;;;7.43;3.80;;;;;;;2.26;92.68;99523.69;126098;1099;104184;-78
2021/12/08 05:24:36;;;;;;;14.87;6.70;;;;;;;2.24;92.90;99517.55;126142;1099;104179;-79
2021/12/08 05:27:09;;;;;;;14.93;6.97;;;;;;;2.27;92.85;99517.71;126252;1099;104271;-79
2021/12/08 05:29:41;;;;;;;12.10;6.30;;;;;;;2.27;93.09;99523.77;126172;1099;105687;-79
2021/12/08 05:32:11;;;;;;;12.80;4.77;;;;;;;2.27;93.12;99520.30;126214;1099;104165;-78
2021/12/08 05:34:41;;;;;;;4.97;3.83;;;;;;;2.25;92.40;99529.70;126143;1099;104240;-78
2021/12/08 05:37:12;;;;;;;11.70;5.90;;;;;;;2.23;92.63;99533.88;126172;1099;104278;-79
2021/12/08 05:39:41;;;;;;;14.70;5.93;;;;;;;2.21;92.53;99530.33;126151;1097;104214;-81
2021/12/08 05:42:13;;;;;;;8.15;4.10;;;;;;;2.22;92.76;99532.12;126204;1099;104157;-79
2021/12/08 05:44:43;;;;;;;9.70;5.53;;;;;;;2.21;92.79;99527.73;126308;1099;104146;-79
2021/12/08 05:47:16;;;;;;;17.43;8.90;;;;;;;2.21;92.89;99527.73;126266;1099;104254;-79
2021/12/08 05:49:45;;;;;;;20.43;10.97;;;;;;;2.20;92.71;99536.30;126075;1098;104175;-79
2021/12/08 05:52:15;;;;;;;17.70;10.07;;;;;;;2.18;93.12;99533.63;126240;1099;104444;-80
2021/12/08 05:54:46;;;;;;;25.67;15.33;;;;;;;2.18;93.05;99530.16;125997;1099;104185;-78
2021/12/08 05:57:19;;;;;;;46.87;27.87;;;;;;;2.18;92.87;99531.04;126031;1099;104277;-81
2021/12/08 05:59:52;;;;;;;19.80;9.50;;;;;;;2.18;92.81;99532.75;125098;1099;104316;-81
2021/12/08 06:02:25;;;;;;;12.43;5.90;;;;;;;2.20;92.95;99532.03;125169;1099;104310;-80
2021/12/08 06:04:54;;;;;;;13.43;5.87;;;;;;;2.20;92.80;99531.13;125200;1099;104188;-80
2021/12/08 06:07:23;;;;;;;9.80;5.00;;;;;;;2.16;92.81;99533.55;125190;1102;104438;-79
2021/12/08 06:09:54;;;;;;;7.40;4.10;;;;;;;2.15;92.24;99556.76;125248;1099;104178;-81
2021/12/08 06:12:24;;;;;;;10.90;5.00;;;;;;;2.14;92.60;99542.06;125203;1099;104615;-80
2021/12/08 06:14:57;;;;;;;15.90;6.70;;;;;;;2.14;93.23;99555.88;125269;1099;102034;-80
2021/12/08 06:17:28;;;;;;;13.20;6.57;;;;;;;2.12;93.14;99554.00;125194;1102;104305;-80
2021/12/08 06:19:58;;;;;;;17.60;8.43;;;;;;;2.13;92.24;99538.56;125157;1102;104185;-81
2021/12/08 06:22:30;;;;;;;15.65;6.50;;;;;;;2.16;92.20;99549.08;125261;1102;104278;-80
2021/12/08 06:25:01;;;;;;;10.00;5.20;;;;;;;2.20;93.11;99569.95;125269;1102;104293;-80
2021/12/08 06:27:32;;;;;;;9.43;4.90;;;;;;;2.18;92.83;99568.98;125289;1102;104271;-80
2021/12/08 06:30:09;;;;;;;8.03;4.10;;;;;;;2.15;93.08;99559.34;125243;1102;104280;-80
2021/12/08 06:32:39;;;;;;;11.53;5.07;;;;;;;2.12;93.02;99564.36;126028;1099;104385;-80
2021/12/08 06:35:12;;;;;;;8.47;3.83;;;;;;;2.12;92.75;99564.36;126031;1099;104976;-79
2021/12/08 06:37:43;;;;;;;12.13;5.40;;;;;;;2.11;92.83;99568.66;125971;1099;104236;-79
2021/12/08 06:40:17;;;;;;;7.43;4.17;;;;;;;2.10;92.87;99573.75;125782;1099;104303;-80
2021/12/08 06:42:52;;;;;;;6.63;3.70;;;;;;;2.10;92.73;99568.57;125238;1099;104140;-80
2021/12/08 06:45:27;;;;;;;7.20;3.40;;;;;;;2.07;92.88;99571.91;125124;1099;104227;-81
2021/12/08 06:47:58;;;;;;;6.50;3.40;;;;;;;2.05;92.74;99563.14;125274;1099;104413;-78
2021/12/08 06:50:31;;;;;;;5.37;3.17;;;;;;;2.05;93.05;99564.85;125954;1099;104219;-80
2021/12/08 06:53:02;;;;;;;8.70;4.00;;;;;;;2.05;92.33;99568.32;125884;1099;104201;-79
2021/12/08 06:55:34;;;;;;;6.93;3.67;;;;;;;2.05;92.36;99580.38;126001;1098;104149;-77
2021/12/08 06:58:06;;;;;;;7.43;4.13;;;;;;;2.05;92.68;99570.91;126045;1099;104299;-79
2021/12/08 07:00:49;;;;;;;9.47;4.73;;;;;;;2.04;92.42;99581.17;125862;1099;104187;-80
2021/12/08 07:03:53;;;;;;;8.20;3.50;;;;;;;2.03;92.73;99577.70;125762;1099;104226;-80
2021/12/08 07:06:44;;;;;;;7.40;3.80;;;;;;;2.03;93.21;99593.23;125921;1099;104268;-80
2021/12/08 07:09:20;;;;;;;9.80;4.67;;;;;;;2.04;92.47;99576.00;125717;1099;104230;-79
2021/12/08 07:11:54;;;;;;;8.40;4.23;;;;;;;2.05;92.66;99580.38;125778;1099;104175;-79
2021/12/08 07:14:25;;;;;;;10.38;4.67;;;;;;;1.96;92.65;99570.40;125842;1099;104159;-80
2021/12/08 07:17:00;;;;;;;5.20;3.22;;;;;;;2.02;93.23;99578.50;125768;1099;104172;-79
2021/12/08 07:19:42;;;;;;;8.23;4.30;;;;;;;2.00;93.23;99584.42;125959;1099;104236;-80
2021/12/08 07:22:14;;;;;;;7.67;3.33;;;;;;;1.98;92.26;99590.39;125857;1099;104153;-79
2021/12/08 07:24:45;;;;;;;10.10;4.50;;;;;;;2.02;92.59;99598.33;125917;1098;104233;-79
2021/12/08 07:27:17;;;;;;;7.27;4.27;;;;;;;1.99;93.07;99599.03;125941;1098;104175;-80
2021/12/08 07:30:05;;;;;;;12.30;5.27;;;;;;;1.97;92.71;99596.36;125978;1099;104169;-81
2021/12/08 07:32:46;;;;;;;8.17;3.53;;;;;;;2.00;93.33;99602.53;125893;1099;104275;-80
2021/12/08 07:35:22;;;;;;;5.27;3.47;;;;;;;1.95;92.41;99602.28;125952;1098;104274;-79
2021/12/08 07:37:56;;;;;;;6.13;3.70;;;;;;;1.93;92.59;99606.45;125901;1099;104191;-79
2021/12/08 07:40:30;;;;;;;6.83;3.60;;;;;;;1.91;92.24;99608.08;125932;1099;104192;-79
2021/12/08 07:43:04;;;;;;;10.90;3.77;;;;;;;1.90;92.85;99598.52;125964;1099;104149;-79
2021/12/08 07:45:39;;;;;;;6.90;3.67;;;;;;;1.87;92.75;99595.77;126042;1099;104277;-78
2021/12/08 07:48:13;;;;;;;10.20;4.20;;;;;;;1.84;92.59;99593.92;126056;1098;104296;-78
2021/12/08 07:50:47;;;;;;;7.57;3.67;;;;;;;1.82;92.68;99598.09;125957;1099;104313;-79
2021/12/08 07:53:16;;;;;;;;;;;;;;;1.82;92.69;99608.44;125835;1099;104197;-79
2021/12/08 07:55:49;;;;;;;10.93;4.50;;;;;;;1.78;93.20;99604.80;125905;1099;104280;-80
2021/12/08 07:58:21;;;;;;;6.23;3.47;;;;;;;1.78;93.27;99604.80;125891;1099;104347;-78
2021/12/08 08:00:52;;;;;;;7.20;3.53;;;;;;;1.77;92.91;99613.36;125185;1099;104367;-79
2021/12/08 08:03:23;;;;;;;8.40;3.40;;;;;;;1.76;93.37;99601.25;125133;1102;104395;-79
2021/12/08 08:05:55;;;;;;;9.47;3.73;;;;;;;1.73;93.33;99610.51;126003;1099;104401;-79
2021/12/08 08:08:25;;;;;;;14.27;4.00;;;;;;;1.73;93.58;99618.27;126143;1099;104665;-79
2021/12/08 08:10:59;;;;;;;7.30;3.67;;;;;;;1.68;93.58;99611.95;125298;1099;104235;-80
2021/12/08 08:13:39;;;;;;;6.28;3.35;;;;;;;1.69;93.45;99613.75;125265;1099;104159;-81
2021/12/08 08:16:13;;;;;;;10.37;4.70;;;;;;;1.67;93.23;99608.48;125086;1099;104325;-81
2021/12/08 08:18:47;;;;;;;11.17;5.17;;;;;;;1.69;93.96;99609.45;125344;1099;104216;-81
2021/12/08 08:21:20;;;;;;;14.73;5.37;;;;;;;1.68;93.23;99607.66;125862;1099;104213;-81
2021/12/08 08:24:00;;;;;;;12.20;4.87;;;;;;;1.69;93.08;99618.92;125731;1099;104303;-81
2021/12/08 08:26:33;;;;;;;12.87;4.93;;;;;;;1.67;93.12;99615.33;125758;1099;104237;-81
2021/12/08 08:29:36;;;;;;;10.13;5.33;;;;;;;1.66;92.97;99610.98;125791;1099;104172;-81
2021/12/08 08:32:42;;;;;;;12.27;5.27;;;;;;;1.67;93.36;99611.08;125799;1099;104341;-80
2021/12/08 08:35:24;;;;;;;10.33;5.27;;;;;;;1.68;93.55;99605.08;125837;1099;104152;-80
2021/12/08 08:41:13;;;;;;;7.43;3.87;;;;;;;1.65;93.24;99586.80;125127;1099;104188;-78
2021/12/08 08:43:48;;;;;;;7.30;3.60;;;;;;;1.65;93.29;99597.14;125139;1102;104153;-79
2021/12/08 08:46:29;;;;;;;11.90;4.80;;;;;;;1.67;93.34;99584.30;125116;1099;104275;-80
2021/12/08 08:49:03;;;;;;;11.20;5.03;;;;;;;1.65;93.40;99581.63;125074;1099;104236;-79
2021/12/08 08:51:36;;;;;;;;;;;;;;;1.66;93.16;99579.95;125117;1099;104210;-79
2021/12/08 08:54:11;;;;;;;11.80;5.45;;;;;;;1.67;93.68;99579.13;125048;1099;104287;-81
2021/12/08 08:56:47;;;;;;;17.40;9.10;;;;;;;1.67;92.98;99580.04;125063;1099;104198;-81
2021/12/08 08:59:27;;;;;;;11.87;5.80;;;;;;;1.69;93.51;99575.83;125150;1099;104342;-79
2021/12/08 09:01:57;;;;;;;13.03;6.63;;;;;;;1.68;93.00;99575.75;125206;1101;104178;-78
2021/12/08 09:04:30;;;;;;;15.93;7.40;;;;;;;1.69;93.08;99578.42;125113;1099;102951;-80
2021/12/08 09:07:04;;;;;;;11.40;5.50;;;;;;;1.71;93.43;99574.21;125251;1102;104297;-78
2021/12/08 09:09:41;;;;;;;10.10;5.00;;;;;;;1.72;93.42;99578.59;125199;1099;104354;-79
2021/12/08 09:12:14;;;;;;;12.23;6.37;;;;;;;1.72;93.05;99576.00;125163;1102;104306;-81
2021/12/08 09:14:52;;;;;;;9.30;5.07;;;;;;;1.75;93.28;99570.12;125273;1099;102163;-81
2021/12/08 09:17:37;;;;;;;11.73;5.80;;;;;;;1.74;92.52;99570.92;125957;1098;104242;-81
2021/12/08 09:20:12;;;;;;;8.80;5.07;;;;;;;1.76;92.79;99570.21;126081;1099;104395;-81
2021/12/08 09:22:57;;;;;;;13.07;5.80;;;;;;;1.77;92.52;99571.09;126016;1099;104176;-81
2021/12/08 09:25:31;;;;;;;12.83;5.90;;;;;;;1.80;93.08;99574.73;126082;1098;104578;-79
2021/12/08 09:28:08;;;;;;;11.40;5.00;;;;;;;1.83;92.71;99570.55;125938;1098;104220;-78
2021/12/08 09:30:41;;;;;;;14.10;6.60;;;;;;;1.86;92.59;99571.60;126066;1099;104182;-79
2021/12/08 09:33:15;;;;;;;9.63;4.40;;;;;;;1.90;92.99;99570.06;126015;1099;104364;-80
2021/12/08 09:35:49;;;;;;;14.63;6.40;;;;;;;1.87;92.80;99557.88;126106;1099;108457;-80
2021/12/08 09:38:24;;;;;;;11.50;5.40;;;;;;;1.89;92.73;99566.59;126076;1099;104178;-81
2021/12/08 09:41:00;;;;;;;11.27;5.70;;;;;;;1.87;92.98;99567.30;126008;1099;104309;-81
2021/12/08 09:43:36;;;;;;;8.77;4.80;;;;;;;1.87;92.36;99572.48;126098;1099;104146;-79
2021/12/08 09:46:10;;;;;;;12.57;6.17;;;;;;;1.89;92.95;99576.95;126081;1099;104797;-80
2021/12/08 09:48:39;;;;;;;12.13;6.33;;;;;;;1.90;92.45;99563.22;125909;1099;104309;-81
2021/12/08 09:51:13;;;;;;;15.17;7.63;;;;;;;1.90;92.59;99576.15;125856;1099;104175;-81
2021/12/08 09:53:45;;;;;;;13.00;6.95;;;;;;;1.89;92.59;99571.77;125724;1099;104076;-80
2021/12/08 09:56:15;;;;;;;14.33;7.33;;;;;;;1.88;92.57;99575.16;126123;1099;101889;-79
2021/12/08 09:58:46;;;;;;;12.53;6.10;;;;;;;1.88;92.31;99574.27;125999;1099;104369;-81
2021/12/08 10:01:22;;;;;;;15.47;7.03;;;;;;;1.86;92.73;99565.55;125880;1099;104294;-81
2021/12/08 10:03:55;;;;;;;15.83;6.67;;;;;;;1.85;92.64;99571.52;126004;1099;104295;-81
2021/12/08 10:06:26;;;;;;;9.87;5.10;;;;;;;1.83;93.31;99565.38;126046;1097;104146;-81
2021/12/08 10:09:20;;;;;;;12.40;5.83;;;;;;;1.82;92.35;99567.05;125831;1099;104246;-83
2021/12/08 10:11:54;;;;;;;12.82;6.20;;;;;;;1.79;92.55;99575.55;125920;1099;104172;-82
2021/12/08 10:14:23;;;;;;;13.00;6.63;;;;;;;1.82;92.89;99561.00;125895;1099;104300;-81
2021/12/08 10:16:54;;;;;;;14.03;6.63;;;;;;;1.84;92.55;99559.37;125855;1099;104249;-81
2021/12/08 10:19:24;;;;;;;14.67;6.97;;;;;;;1.83;92.55;99562.79;125700;1099;104211;-81
2021/12/08 10:21:55;;;;;;;12.83;5.87;;;;;;;1.80;92.28;99551.45;125981;1099;102149;-81
2021/12/08 10:24:25;;;;;;;11.03;5.30;;;;;;;1.80;92.72;99546.27;126031;1099;104149;-82
2021/12/08 10:27:03;;;;;;;12.05;5.30;;;;;;;1.78;92.59;99541.84;125797;1099;107060;-82
2021/12/08 10:29:33;;;;;;;10.03;5.23;;;;;;;1.74;92.63;99543.34;125116;1099;104405;-81
2021/12/08 10:32:04;;;;;;;12.60;5.33;;;;;;;1.76;92.85;99539.17;125151;1099;104207;-81
2021/12/08 10:34:42;;;;;;;12.27;5.63;;;;;;;1.75;92.42;99544.26;125141;1102;104235;-79
2021/12/08 10:37:18;;;;;;;12.10;5.90;;;;;;;1.74;92.57;99551.11;125122;1099;118185;-81
2021/12/08 10:39:52;;;;;;;12.60;5.20;;;;;;;1.72;92.33;99546.67;125181;1099;104667;-79
2021/12/08 10:45:11;;;;;;;11.87;5.53;;;;;;;1.68;92.55;99542.13;125093;1099;105561;-80
2021/12/08 10:47:55;;;;;;;11.40;5.57;;;;;;;1.66;93.05;99530.81;125156;1099;104169;-81
2021/12/08 10:56:24;;;;;;;10.30;5.53;;;;;;;1.66;93.36;99535.98;125092;1099;104335;-80
2021/12/08 10:58:59;;;;;;;12.40;6.47;;;;;;;1.62;93.33;99534.91;125152;1099;104249;-79
2021/12/08 11:01:34;;;;;;;14.33;7.13;;;;;;;1.54;93.00;99520.67;125710;1099;104204;-82
2021/12/08 11:04:29;;;;;;;16.80;7.67;;;;;;;1.61;92.83;99534.02;125936;1099;104313;-81
2021/12/08 11:07:09;;;;;;;16.73;7.93;;;;;;;1.64;92.56;99532.41;125652;1099;104143;-81
2021/12/08 11:09:44;;;;;;;12.67;5.93;;;;;;;1.65;92.76;99542.83;125751;1099;104172;-82
2021/12/08 11:12:16;;;;;;;13.10;6.40;;;;;;;1.67;92.53;99548.09;125826;1099;104198;-80
2021/12/08 11:14:50;;;;;;;13.93;6.30;;;;;;;1.65;93.35;99548.00;126127;1099;102496;-80
2021/12/08 11:17:26;;;;;;;18.25;8.43;;;;;;;1.65;92.97;99542.83;125776;1099;104300;-81
2021/12/08 11:20:17;;;;;;;14.90;6.67;;;;;;;1.68;92.73;99544.71;125061;1099;104266;-79
2021/12/08 11:22:58;;;;;;;15.40;6.43;;;;;;;1.68;93.22;99532.66;125671;1099;104331;-79
2021/12/08 11:25:52;;;;;;;16.63;7.73;;;;;;;1.69;92.95;99531.86;125618;1099;104239;-81
2021/12/08 11:28:25;;;;;;;17.92;7.50;;;;;;;1.73;93.39;99535.50;125670;1099;104175;-78
2021/12/08 11:30:54;;;;;;;14.03;6.53;;;;;;;1.74;92.97;99530.41;125770;1099;104145;-78
2021/12/08 11:33:24;;;;;;;12.33;5.77;;;;;;;1.72;92.74;99528.57;125780;1099;102567;-78
2021/12/08 11:36:09;;;;;;;18.13;8.37;;;;;;;1.69;92.90;99526.69;125814;1099;104738;-77
2021/12/08 11:38:40;;;;;;;15.90;7.43;;;;;;;1.68;92.83;99539.54;125683;1099;111814;-78
2021/12/08 11:41:34;;;;;;;12.80;6.30;;;;;;;1.69;92.98;99541.33;125754;1099;104220;-79
2021/12/08 11:44:08;;;;;;;11.90;5.83;;;;;;;1.68;93.68;99534.37;125818;1099;104296;-77
2021/12/08 11:46:42;;;;;;;13.20;5.85;;;;;;;1.69;92.56;99538.75;126064;1098;104162;-77
2021/12/08 11:49:16;;;;;;;15.30;7.40;;;;;;;1.66;92.95;99534.28;125927;1099;104284;-78
2021/12/08 11:51:59;;;;;;;13.27;5.90;;;;;;;1.65;93.04;99547.12;125824;1099;104305;-77
2021/12/08 11:54:35;;;;;;;15.57;7.00;;;;;;;1.64;93.43;99537.58;125947;1099;104249;-77
2021/12/08 11:57:11;;;;;;;16.77;6.87;;;;;;;1.61;93.48;99540.91;125931;1099;104169;-77
2021/12/08 11:59:49;;;;;;;14.47;6.33;;;;;;;1.62;93.27;99534.91;126001;1099;104233;-79
2021/12/08 12:02:21;;;;;;;13.27;6.00;;;;;;;1.62;93.10;99540.08;126149;1099;104182;-79
2021/12/08 12:05:12;;;;;;;18.03;6.27;;;;;;;1.63;93.14;99535.81;126136;1099;104146;-79
2021/12/08 12:07:41;;;;;;;14.47;6.90;;;;;;;1.62;93.10;99534.91;125056;1099;104290;-78
2021/12/08 12:10:11;;;;;;;11.53;5.40;;;;;;;1.63;93.73;99538.41;125062;1099;104175;-79
2021/12/08 12:12:41;;;;;;;24.60;6.50;;;;;;;1.62;93.15;99542.66;125142;1099;104220;-77
2021/12/08 12:15:12;;;;;;;14.10;6.40;;;;;;;1.63;93.04;99539.28;125765;1099;104368;-79
2021/12/08 12:17:42;;;;;;;15.93;8.00;;;;;;;1.61;93.39;99536.61;125798;1099;104389;-80
2021/12/08 12:20:19;;;;;;;14.13;7.20;;;;;;;1.63;93.10;99547.04;125660;1099;104133;-80
2021/12/08 12:23:23;;;;;;;12.90;6.00;;;;;;;1.65;93.48;99553.17;125220;1099;104176;-80
2021/12/08 12:26:14;;;;;;;15.27;7.20;;;;;;;1.65;93.24;99555.77;125927;1099;104331;-78
2021/12/08 12:29:14;;;;;;;20.87;9.90;;;;;;;1.65;93.06;99550.59;125704;1099;104173;-79